Roxboro, NC

12:20 AM EST on December 11, 2016 (GMT -0500)
Person County NC | | Change Station

Elev 541 ft 36.45 °N, 79.08 °W | Updated 5 seconds ago

Clear
Clear
23.5 °F
Feels Like 24 °F
N
0.0
Wind Variable Wind from South
Gusts 0.0 mph

Today
High -- | Low -- °F
--% Chance of Precip.
Yesterday
High -- | Low -- °F
Precip. -- in
Pressure 30.52 in
Visibility 10.0 miles
Clouds Clear
Windchill 24 °F
Dew Point 21 °F
Humidity 90%
Rainfall 0.00 in
Snow Depth Not available.
7:17 AM 5:01 PM
Waxing Gibbous, 89% visible
METAR KTDF 110505Z AUTO 00000KT 10SM CLR M06/M07 A3052 RMK AO2
Pressure 30.52 in
Visibility 10.0 miles
Clouds Clear
Windchill 24 °F
Dew Point 21 °F
Humidity 90%
Rainfall 0.00 in
Snow Depth Not available.
7:17 AM 5:01 PM
Waxing Gibbous, 89% visible
METAR KTDF 110505Z AUTO 00000KT 10SM CLR M06/M07 A3052 RMK AO2

10-Day Weather Forecast

Almanac

Astronomy

Dec. 11, 2016 Rise Set
Actual Time
Civil Twilight
Nautical Twilight
Astronomical Twilight
Moon
Length of Visible Light
Length of Day
Tomorrow will be .
, % of the Moon is Illuminated

Today's Extremes

State Highs State Lows

Community

WunderPhotos

Upload Photos

1,956,705 photos uploaded!

WunderBlog® & News

Nearby

Air Quality

  Air Quality AQ Index Pollutant
Not available.

Snow Depth

Station Depth Elevation

Earthquake Activity

City Distance Mag. Time & Date
Minimum magnitude displayed is 2.5.

Coastal Water Temperatures

Place Temperature

Stations

Nearby Weather Stations

Station Location Temp. Windchill Dew Point Humidity Wind Precip. Elev Updated Type
                   

Watches & Warnings

There are currently no watches in effect.